Bentonville, AR (72712)

5:13 PM CDT on August 30, 2014 (GMT -0500)
KARBENTO2 | Change Station
CLOSE
Current Station
Personal Weather Station
Location: Bentonville, AR
Elevation: 1289 ft
Nearby Weather Stations

Elev 1289 ft 36.36 °N, 94.20 °W | Updated 12 seconds ago

Mostly Cloudy
Mostly Cloudy
80.2 °F
Feels Like 81 °F
N
2.8
Wind Variable Wind from NE
Gusts 11.3 mph

Today
High -- | Low -- °F
--% Chance of Precip.
Yesterday
High -- | Low -- °F
Precip. -- in
6:46 AM 7:47 PM
Waxing Crescent, 25% visible
Pressure 29.95 in
Visibility 10.0 miles
Clouds Few 4100 ft
Mostly Cloudy 5000 ft
Heat Index 81 °F
Dew Point 62 °F
Humidity 54%
Rainfall 0.31 in
Snow Depth Not available.
UV 2 out of 12
Pollen 8.70 out of 12
Air Quality Not available.
Flu Activity Not available.
METAR KVBT 302155Z AUTO 20008KT 10SM FEW041 BKN050 30/20 A2995 RMK AO1 LTG DSNT N

More Conditions Fewer Conditions

Pressure 29.95 in
Visibility 10.0 miles
Clouds Few 4100 ft
Mostly Cloudy 5000 ft
Heat Index 81 °F
Dew Point 62 °F
Humidity 54%
Rainfall 0.31 in
Snow Depth Not available.
UV 2 out of 12
Pollen 8.70 out of 12
Air Quality Not available.
Flu Activity Not available.
METAR KVBT 302155Z AUTO 20008KT 10SM FEW041 BKN050 30/20 A2995 RMK AO1 LTG DSNT N

More Conditions Fewer Conditions

10-Day Weather Forecast

Almanac

Astronomy

Aug. 30, 2014 Rise Set
Actual Time 6:46 AM CDT 7:47 PM CDT
Civil Twilight 6:20 AM CDT 8:13 PM CDT
Nautical Twilight 5:48 AM CDT 8:45 PM CDT
Astronomical Twilight 5:16 AM CDT 9:17 PM CDT
Moon 11:25 AM CDT 10:31 PM CDT
Length of Visible Light 13h 53m
Length of Day
13h 00m
Tomorrow will be 2m 11s shorter.
Waxing Crescent, 25% of the Moon is Illuminated
Today
Waxing Crescent
Sep 2
First Quarter
Sep 8
Full
Sep 15
Last Quarter
Sep 24
New

Today's Extremes

State Highs State Lows

Community

WunderPhotos

Upload Photos

1,748,657 photos uploaded!

WunderBlogs® & News

Nearby

Snow Depth

Station Depth Elevation
No new snow has been reported.

Earthquake Activity

City Distance Mag. Time & Date
No recent earthquake activity has been reported nearby.
Minimum magnitude displayed is 2.5.

Coastal Water Temperatures

Place Temperature
No Stations Reporting

Nearby Weather Stations